Gould Hill, Vermont
Current Conditions -  °F | °C
As of 3:51 AM on Saturday 22 Nov 2014 (Local Time) from KMPV Reporting Station
Broken Clouds Broken Clouds  
Wind Chill:   Ceiling: 3700
Heat Index: 19°   Visibility: 10mi
Dew Point:   Wind: 8mph
Humidity: 62%   Direction: 200°SSW
Pressure: 30.3"   Gusts: NA
Location:  44.2861°N, 72.6004°W
Report Text: KMPV 220851Z AUTO 20007KT 10SM FEW030 BKN037 M07/M13 A3030 RMK AO2 SLP284 T10721133 58003
Loading
Personal Weather Stations






























Interactive Weather Map New forecast layout! Learn more

10-Day Weather Forecast

Advertisements
Track Severe Weather on mobile